createdAt,value
2022-09-05T04:57:18.218Z,19.33
2022-09-05T05:00:48.447Z,19.379999
2022-09-05T05:05:59.067Z,19.49
2022-09-05T05:06:06.781Z,19.67
2022-09-05T05:06:35.011Z,19.860001
2022-09-05T05:08:43.317Z,20.059999
2022-09-05T05:13:13.341Z,20.26
2022-09-05T05:17:54.557Z,20.450001
2022-09-05T05:18:04.549Z,20.76
2022-09-05T05:18:05.843Z,20.610001
2022-09-05T05:20:40.818Z,20.9
2022-09-05T05:22:24.416Z,21.030001
2022-09-05T05:24:38.797Z,21.139999
2022-09-05T05:26:56.962Z,21.24
2022-09-05T05:29:07.527Z,21.34
2022-09-05T05:31:26.232Z,21.440001
2022-09-05T05:33:41.658Z,21.52
2022-09-05T05:35:56.597Z,21.58
2022-09-05T05:38:10.982Z,21.65
2022-09-05T05:40:25.336Z,21.709999
2022-09-05T05:42:43.451Z,21.77
2022-09-05T05:44:58.229Z,21.83
2022-09-05T05:47:12.710Z,21.889999
2022-09-05T05:49:30.273Z,21.950001
2022-09-05T05:52:00.664Z,21.99
2022-09-05T05:54:02.678Z,22.02
2022-09-05T05:56:17.566Z,22.07
2022-09-05T05:58:32.609Z,22.120001
2022-09-05T17:01:09.359Z,26.950001
2022-09-05T17:03:28.513Z,26.98
2022-09-05T17:05:37.959Z,27.040001
2022-09-05T17:07:53.411Z,27.139999
2022-09-05T17:10:07.853Z,27.27
2022-09-05T17:12:22.460Z,27.4
2022-09-05T17:14:36.626Z,27.530001
2022-09-05T17:16:51.112Z,27.65
2022-09-05T17:19:05.365Z,27.75
2022-09-05T17:21:20.069Z,27.83
2022-09-05T17:25:40.142Z,27.9
2022-09-05T17:29:22.074Z,27.940001
2022-09-05T17:29:23.204Z,27.98
2022-09-05T17:32:47.244Z,28.01
2022-09-05T17:35:17.914Z,28.02
2022-09-05T17:37:19.082Z,28.02
2022-09-05T17:39:39.926Z,28.02
2022-09-05T17:41:51.235Z,28.01
2022-09-05T17:44:05.586Z,28
2022-09-05T17:46:20.095Z,27.99
2022-09-05T17:48:34.475Z,27.969999
2022-09-05T17:50:48.874Z,27.940001
2022-09-05T17:53:25.467Z,27.9
2022-09-05T17:55:23.204Z,27.860001
2022-09-05T17:57:37.811Z,27.799999
2022-09-05T17:59:52.517Z,27.74
2022-09-05T18:02:10.167Z,27.690001
2022-09-05T18:04:26.864Z,27.65
2022-09-05T18:06:40.487Z,27.610001
2022-09-05T18:08:57.837Z,27.57
2022-09-05T18:11:15.158Z,27.530001
2022-09-05T18:13:33.332Z,27.5
2022-09-05T18:15:46.901Z,27.450001
2022-09-05T18:18:01.283Z,27.389999
2022-09-05T18:20:15.699Z,27.33
2022-09-05T18:22:32.141Z,27.25
2022-09-05T18:24:47.026Z,27.17
2022-09-05T18:29:19.900Z,27.02
2022-09-05T18:31:40.678Z,26.950001
2022-09-05T18:33:56.968Z,26.879999
2022-09-05T18:36:09.174Z,26.809999
2022-09-05T18:38:26.150Z,26.75
2022-09-05T18:40:40.868Z,26.709999
2022-09-05T18:42:55.311Z,26.68
2022-09-05T18:45:14.393Z,26.639999
2022-09-05T18:47:33.705Z,26.6
2022-09-05T18:50:24.452Z,26.58
2022-09-05T18:52:04.779Z,26.559999
2022-09-05T18:54:22.538Z,26.530001
2022-09-05T18:56:51.463Z,26.51
2022-09-05T18:58:59.465Z,26.49
2022-09-05T19:01:15.381Z,26.48
2022-09-05T19:03:34.415Z,26.469999
2022-09-05T19:05:56.279Z,26.459999
2022-09-05T19:08:26.959Z,26.440001
2022-09-05T19:10:35.296Z,26.42
2022-09-05T19:12:53.344Z,26.41
2022-09-05T19:15:07.065Z,26.4
2022-09-05T19:17:19.215Z,26.389999
2022-09-05T19:19:36.238Z,26.379999
2022-09-05T19:21:56.166Z,26.370001
2022-09-05T19:24:09.023Z,26.379999
2022-09-05T19:26:23.397Z,26.389999
2022-09-05T19:32:51.560Z,26.4
2022-09-05T19:36:47.636Z,26.41
2022-09-05T19:36:47.805Z,26.42
2022-09-05T19:37:00.856Z,26.43
2022-09-05T19:37:49.065Z,26.440001
2022-09-05T19:40:33.490Z,26.450001
2022-09-05T19:47:32.488Z,26.49
2022-09-05T19:47:33.235Z,26.469999
2022-09-05T19:47:33.273Z,26.459999
2022-09-05T19:49:13.286Z,26.5
2022-09-05T19:51:27.773Z,26.5
2022-09-05T19:53:42.116Z,26.5
2022-09-05T19:55:58.481Z,26.49
2022-09-05T19:58:18.695Z,26.48
2022-09-05T20:00:29.349Z,26.49
2022-09-05T20:02:43.666Z,26.48
2022-09-05T20:05:00.101Z,26.49
2022-09-05T20:07:14.503Z,26.5
2022-09-05T20:09:28.983Z,26.5
2022-09-05T20:11:45.426Z,26.5
2022-09-05T20:13:57.710Z,26.5
2022-09-05T20:16:12.148Z,26.5
2022-09-05T20:18:26.684Z,26.5
2022-09-05T20:20:40.901Z,26.5
2022-09-05T20:22:58.227Z,26.49
2022-09-05T20:25:19.987Z,26.49
2022-09-05T20:27:29.954Z,26.48
2022-09-05T20:29:44.899Z,26.48
2022-09-05T20:32:01.646Z,26.469999
2022-09-05T20:34:24.607Z,26.450001
2022-09-05T20:39:14.166Z,26.43
2022-09-05T20:43:12.672Z,26.43
2022-09-05T20:43:34.623Z,26.42
2022-09-05T20:43:36.875Z,26.41
2022-09-05T20:45:42.686Z,26.4
2022-09-05T20:51:27.947Z,26.379999
2022-09-05T20:54:12.421Z,26.379999
2022-09-05T20:54:12.437Z,26.379999
2022-09-05T20:54:52.254Z,26.379999
2022-09-05T20:57:07.486Z,26.379999
2022-09-05T20:59:26.127Z,26.389999
2022-09-05T21:01:39.503Z,26.379999
2022-09-05T21:03:53.837Z,26.379999
2022-09-05T21:06:08.837Z,26.370001
2022-09-05T21:08:22.533Z,26.370001
2022-09-05T21:10:47.154Z,26.360001
2022-09-05T21:12:55.273Z,26.360001
2022-09-05T21:15:30.629Z,26.35
2022-09-05T21:17:26.980Z,26.33
2022-09-05T21:19:42.388Z,26.32
2022-09-05T21:21:59.704Z,26.309999
2022-09-05T21:24:16.991Z,26.299999
2022-09-05T21:26:28.445Z,26.290001
2022-09-05T21:28:46.011Z,26.280001
